Sardis, GA (30456)

12:39 PM EDT on September 04, 2015 (GMT -0400)
Heatwole Family Allen Rd.,North Burke County | | Change Station
CLOSE
Current Station
Personal Weather Station
Location: Hephzibah, GA
Elevation: 364 ft
Nearby Weather Stations

Elev 364 ft 33.19 °N, 82.02 °W | Updated 1 minute ago

Clear
Clear
93.2 °F
Feels Like 102 °F
N
3.1
Wind Variable Wind from SE
Gusts 7.0 mph

Today
High -- | Low -- °F
--% Chance of Precip.
Yesterday
High -- | Low -- °F
Precip. -- in
7:03 AM 7:48 PM
Waning Gibbous, 58% visible
Pressure 29.98 in
Visibility 10.0 miles
Clouds Clear
Heat Index 102 °F
Dew Point 73 °F
Humidity 52%
Rainfall 0.00 in
Snow Depth Not available.
UV 9 out of 12
Pollen 8.80 out of 12
Air Quality Not available.
Flu Activity Not available.
METAR KAGS 041553Z VRB04KT 10SM CLR 33/22 A2998 RMK AO2 SLP150 T03330222
Pressure 29.98 in
Visibility 10.0 miles
Clouds Clear
Heat Index 102 °F
Dew Point 73 °F
Humidity 52%
Rainfall 0.00 in
Snow Depth Not available.
UV 9 out of 12
Pollen 8.80 out of 12
Air Quality Not available.
Flu Activity Not available.
METAR KAGS 041553Z VRB04KT 10SM CLR 33/22 A2998 RMK AO2 SLP150 T03330222

10-Day Weather Forecast

×

Almanac

Astronomy

Sep. 04, 2015 Rise Set
Actual Time
Civil Twilight
Nautical Twilight
Astronomical Twilight
Moon
Length of Visible Light
Length of Day
Tomorrow will be .
, % of the Moon is Illuminated

Today's Extremes

State Highs State Lows

Community

WunderPhotos

Upload Photos

1,852,220 photos uploaded!

WunderBlogs® & News

Nearby

Air Quality

  Air Quality AQ Index Pollutant
Not available.

Snow Depth

Station Depth Elevation

Earthquake Activity

City Distance Mag. Time & Date
Minimum magnitude displayed is 2.5.

Coastal Water Temperatures

Place Temperature

Stations

Nearby Weather Stations

Station Location Temp. Windchill Dew Point Humidity Wind Precip. Elev Updated Type